<?xml version='1.0' encoding='UTF-8'?>
<gpx xmlns="http://www.topografix.com/GPX/1/1" creator="www.balnam.be" version="1.1" xmlns:xsi="http://www.w3.org/2001/XMLSchema-instance" xsi:schemaLocation="http://www.topografix.com/GPX/1/1 http://www.topografix.com/GPX/1/1/gpx.xsd">
<trk>
<name>lbgbg1</name>
<cmt>v</cmt>
<desc>Bassenge Chemin n°1 Thier au Pèquet / Rue Frenay</desc>
<link href="https://chemins.be/bassenge/chemin/1"/><trkseg>
<trkpt lat="50.749819" lon="5.608849"><time>2026-05-08T04:48:28Z</time></trkpt>
<trkpt lat="50.750765" lon="5.609377"><time>2026-05-08T04:58:28Z</time></trkpt>
<trkpt lat="50.751321" lon="5.609489"><time>2026-05-08T05:08:28Z</time></trkpt>
<trkpt lat="50.751769" lon="5.609961"><time>2026-05-08T05:18:28Z</time></trkpt>
<trkpt lat="50.752187" lon="5.610748"><time>2026-05-08T05:28:28Z</time></trkpt>
<trkpt lat="50.752371" lon="5.611027"><time>2026-05-08T05:38:28Z</time></trkpt>
<trkpt lat="50.752852" lon="5.611383"><time>2026-05-08T05:48:28Z</time></trkpt>
<trkpt lat="50.753006" lon="5.611442"><time>2026-05-08T05:58:28Z</time></trkpt>
<trkpt lat="50.753156" lon="5.611742"><time>2026-05-08T06:08:28Z</time></trkpt>
</trkseg>
</trk>
<trk>
<name>lbgbg11</name>
<cmt>v</cmt>
<desc>Bassenge Chemin n°11 Rue Droit Thier</desc>
<link href="https://chemins.be/bassenge/chemin/11"/><trkseg>
<trkpt lat="50.759414" lon="5.599875"><time>2026-05-08T04:48:28Z</time></trkpt>
<trkpt lat="50.759690" lon="5.599206"><time>2026-05-08T04:58:28Z</time></trkpt>
<trkpt lat="50.759718" lon="5.597962"><time>2026-05-08T05:08:28Z</time></trkpt>
</trkseg>
</trk>
<trk>
<name>lbgbg12</name>
<cmt>v</cmt>
<desc>Bassenge Chemin n°12 </desc>
<link href="https://chemins.be/bassenge/chemin/12"/><trkseg>
<trkpt lat="50.770061" lon="5.584329"><time>2026-05-08T04:48:28Z</time></trkpt>
<trkpt lat="50.771323" lon="5.585831"><time>2026-05-08T04:58:28Z</time></trkpt>
<trkpt lat="50.772020" lon="5.586596"><time>2026-05-08T05:08:28Z</time></trkpt>
<trkpt lat="50.772359" lon="5.587319"><time>2026-05-08T05:18:28Z</time></trkpt>
</trkseg>
</trk>
<trk>
<name>lbgbg13</name>
<cmt>v</cmt>
<desc>Bassenge Chemin n°13 </desc>
<link href="https://chemins.be/bassenge/chemin/13"/><trkseg>
<trkpt lat="50.764356" lon="5.610637"><time>2026-05-08T04:48:28Z</time></trkpt>
<trkpt lat="50.764327" lon="5.610807"><time>2026-05-08T04:58:28Z</time></trkpt>
<trkpt lat="50.764305" lon="5.611203"><time>2026-05-08T05:08:28Z</time></trkpt>
<trkpt lat="50.764284" lon="5.611458"><time>2026-05-08T05:18:28Z</time></trkpt>
<trkpt lat="50.764280" lon="5.611798"><time>2026-05-08T05:28:28Z</time></trkpt>
<trkpt lat="50.764266" lon="5.612279"><time>2026-05-08T05:38:28Z</time></trkpt>
<trkpt lat="50.764237" lon="5.612505"><time>2026-05-08T05:48:28Z</time></trkpt>
<trkpt lat="50.764217" lon="5.612717"><time>2026-05-08T05:58:28Z</time></trkpt>
<trkpt lat="50.764248" lon="5.613144"><time>2026-05-08T06:08:28Z</time></trkpt>
<trkpt lat="50.764270" lon="5.613640"><time>2026-05-08T06:18:28Z</time></trkpt>
<trkpt lat="50.764291" lon="5.614123"><time>2026-05-08T06:28:28Z</time></trkpt>
<trkpt lat="50.764315" lon="5.614421"><time>2026-05-08T06:38:28Z</time></trkpt>
<trkpt lat="50.764314" lon="5.614520"><time>2026-05-08T06:48:28Z</time></trkpt>
<trkpt lat="50.764295" lon="5.614591"><time>2026-05-08T06:58:28Z</time></trkpt>
<trkpt lat="50.764268" lon="5.614633"><time>2026-05-08T07:08:28Z</time></trkpt>
<trkpt lat="50.764223" lon="5.614660"><time>2026-05-08T07:18:28Z</time></trkpt>
<trkpt lat="50.764160" lon="5.614687"><time>2026-05-08T07:28:28Z</time></trkpt>
</trkseg>
</trk>
<trk>
<name>lbgbg14</name>
<cmt>d</cmt>
<desc>Bassenge Chemin n°14 Sentier de Tongres</desc>
<link href="https://chemins.be/bassenge/chemin/14"/><trkseg>
<trkpt lat="50.765347" lon="5.607966"><time>2026-05-08T04:48:28Z</time></trkpt>
<trkpt lat="50.764713" lon="5.605686"><time>2026-05-08T04:58:28Z</time></trkpt>
</trkseg></trk>
<trk>
<name>lbgbg14</name>
<cmt>v</cmt>
<desc>Bassenge Chemin n°14 Sentier de Tongres</desc>
<link href="https://chemins.be/bassenge/chemin/14"/><trkseg>
<trkpt lat="50.764713" lon="5.605686"><time>2026-05-08T04:58:28Z</time></trkpt>
<trkpt lat="50.764370" lon="5.604520"><time>2026-05-08T05:08:28Z</time></trkpt>
<trkpt lat="50.763768" lon="5.602475"><time>2026-05-08T05:18:28Z</time></trkpt>
<trkpt lat="50.763568" lon="5.601943"><time>2026-05-08T05:28:28Z</time></trkpt>
<trkpt lat="50.763269" lon="5.601399"><time>2026-05-08T05:38:28Z</time></trkpt>
<trkpt lat="50.763285" lon="5.600920"><time>2026-05-08T05:48:28Z</time></trkpt>
</trkseg></trk>
<trk>
<name>lbgbg14</name>
<cmt>r</cmt>
<desc>Bassenge Chemin n°14 Sentier de Tongres</desc>
<link href="https://chemins.be/bassenge/chemin/14"/><trkseg>
<trkpt lat="50.763285" lon="5.600920"><time>2026-05-08T05:48:28Z</time></trkpt>
<trkpt lat="50.763310" lon="5.600269"><time>2026-05-08T05:58:28Z</time></trkpt>
<trkpt lat="50.763251" lon="5.600005"><time>2026-05-08T06:08:28Z</time></trkpt>
</trkseg>
</trk>
<trk>
<name>lbgbg15</name>
<cmt>q</cmt>
<desc>Bassenge Chemin n°15 </desc>
<link href="https://chemins.be/bassenge/chemin/15"/><trkseg>
<trkpt lat="50.770558" lon="5.616425"><time>2026-05-08T04:48:28Z</time></trkpt>
<trkpt lat="50.770395" lon="5.615921"><time>2026-05-08T04:58:28Z</time></trkpt>
<trkpt lat="50.770433" lon="5.613630"><time>2026-05-08T05:08:28Z</time></trkpt>
<trkpt lat="50.771003" lon="5.610701"><time>2026-05-08T05:18:28Z</time></trkpt>
</trkseg>
</trk>
<trk>
<name>lbgbg16</name>
<cmt>v</cmt>
<desc>Bassenge Chemin n°16 </desc>
<link href="https://chemins.be/bassenge/chemin/16"/><trkseg>
<trkpt lat="50.766197" lon="5.610747"><time>2026-05-08T04:48:28Z</time></trkpt>
<trkpt lat="50.766918" lon="5.612260"><time>2026-05-08T04:58:28Z</time></trkpt>
<trkpt lat="50.768516" lon="5.614456"><time>2026-05-08T05:08:28Z</time></trkpt>
<trkpt lat="50.769347" lon="5.616023"><time>2026-05-08T05:18:28Z</time></trkpt>
</trkseg>
</trk>
<trk>
<name>lbgbg19</name>
<cmt>v</cmt>
<desc>Bassenge Chemin n°19 Thier au Pèquet</desc>
<link href="https://chemins.be/bassenge/chemin/19"/><trkseg>
<trkpt lat="50.752700" lon="5.611299"><time>2026-05-08T04:48:28Z</time></trkpt>
<trkpt lat="50.752957" lon="5.610565"><time>2026-05-08T04:58:28Z</time></trkpt>
<trkpt lat="50.752934" lon="5.610103"><time>2026-05-08T05:08:28Z</time></trkpt>
<trkpt lat="50.752481" lon="5.609493"><time>2026-05-08T05:18:28Z</time></trkpt>
<trkpt lat="50.751990" lon="5.608899"><time>2026-05-08T05:28:28Z</time></trkpt>
<trkpt lat="50.751465" lon="5.607769"><time>2026-05-08T05:38:28Z</time></trkpt>
<trkpt lat="50.751361" lon="5.607400"><time>2026-05-08T05:48:28Z</time></trkpt>
</trkseg>
</trk>
<trk>
<name>lbgbg2</name>
<cmt>v</cmt>
<desc>Bassenge Chemin n°2 </desc>
<link href="https://chemins.be/bassenge/chemin/2"/><trkseg>
<trkpt lat="50.753276" lon="5.614657"><time>2026-05-08T04:48:28Z</time></trkpt>
<trkpt lat="50.750781" lon="5.617522"><time>2026-05-08T04:58:28Z</time></trkpt>
<trkpt lat="50.750186" lon="5.618304"><time>2026-05-08T05:08:28Z</time></trkpt>
</trkseg>
</trk>
<trk>
<name>lbgbg20</name>
<cmt>v</cmt>
<desc>Bassenge Chemin n°20 </desc>
<link href="https://chemins.be/bassenge/chemin/20"/><trkseg>
<trkpt lat="50.764446" lon="5.609138"><time>2026-05-08T04:48:28Z</time></trkpt>
<trkpt lat="50.764396" lon="5.608284"><time>2026-05-08T04:58:28Z</time></trkpt>
<trkpt lat="50.764681" lon="5.606649"><time>2026-05-08T05:08:28Z</time></trkpt>
<trkpt lat="50.764717" lon="5.605741"><time>2026-05-08T05:18:28Z</time></trkpt>
</trkseg>
</trk>
<trk>
<name>lbgbg23</name>
<cmt>v</cmt>
<desc>Bassenge Chemin n°23 </desc>
<link href="https://chemins.be/bassenge/chemin/23"/><trkseg>
<trkpt lat="50.764172" lon="5.609768"><time>2026-05-08T04:48:28Z</time></trkpt>
<trkpt lat="50.764258" lon="5.610333"><time>2026-05-08T04:58:28Z</time></trkpt>
<trkpt lat="50.764357" lon="5.610633"><time>2026-05-08T05:08:28Z</time></trkpt>
<trkpt lat="50.764774" lon="5.611184"><time>2026-05-08T05:18:28Z</time></trkpt>
<trkpt lat="50.765365" lon="5.611502"><time>2026-05-08T05:28:28Z</time></trkpt>
</trkseg></trk>
<trk>
<name>lbgbg23</name>
<cmt>d</cmt>
<desc>Bassenge Chemin n°23 </desc>
<link href="https://chemins.be/bassenge/chemin/23"/><trkseg>
<trkpt lat="50.765365" lon="5.611502"><time>2026-05-08T05:28:28Z</time></trkpt>
<trkpt lat="50.766023" lon="5.611985"><time>2026-05-08T05:38:28Z</time></trkpt>
<trkpt lat="50.766916" lon="5.612273"><time>2026-05-08T05:48:28Z</time></trkpt>
</trkseg>
</trk>
<trk>
<name>lbgbg24</name>
<cmt>q</cmt>
<desc>Bassenge Chemin n°24 Rue Frenay</desc>
<link href="https://chemins.be/bassenge/chemin/24"/><trkseg>
<trkpt lat="50.752698" lon="5.611268"><time>2026-05-08T04:48:28Z</time></trkpt>
<trkpt lat="50.753083" lon="5.611047"><time>2026-05-08T04:58:28Z</time></trkpt>
<trkpt lat="50.753169" lon="5.610802"><time>2026-05-08T05:08:28Z</time></trkpt>
<trkpt lat="50.752986" lon="5.608273"><time>2026-05-08T05:18:28Z</time></trkpt>
<trkpt lat="50.753102" lon="5.607672"><time>2026-05-08T05:28:28Z</time></trkpt>
</trkseg></trk>
<trk>
<name>lbgbg24</name>
<cmt>r</cmt>
<desc>Bassenge Chemin n°24 Rue Frenay</desc>
<link href="https://chemins.be/bassenge/chemin/24"/><trkseg>
<trkpt lat="50.753102" lon="5.607672"><time>2026-05-08T05:28:28Z</time></trkpt>
<trkpt lat="50.752883" lon="5.606807"><time>2026-05-08T05:38:28Z</time></trkpt>
</trkseg>
</trk>
<trk>
<name>lbgbg25</name>
<cmt>v</cmt>
<desc>Bassenge Chemin n°25 </desc>
<link href="https://chemins.be/bassenge/chemin/25"/><trkseg>
<trkpt lat="50.765756" lon="5.609994"><time>2026-05-08T04:48:28Z</time></trkpt>
<trkpt lat="50.766338" lon="5.609399"><time>2026-05-08T04:58:28Z</time></trkpt>
<trkpt lat="50.767096" lon="5.609958"><time>2026-05-08T05:08:28Z</time></trkpt>
<trkpt lat="50.768559" lon="5.610224"><time>2026-05-08T05:18:28Z</time></trkpt>
<trkpt lat="50.769708" lon="5.610381"><time>2026-05-08T05:28:28Z</time></trkpt>
<trkpt lat="50.770972" lon="5.610684"><time>2026-05-08T05:38:28Z</time></trkpt>
<trkpt lat="50.772190" lon="5.611184"><time>2026-05-08T05:48:28Z</time></trkpt>
</trkseg>
</trk>
<trk>
<name>lbgbg30</name>
<cmt>v</cmt>
<desc>Bassenge Chemin n°30 </desc>
<link href="https://chemins.be/bassenge/chemin/30"/><trkseg>
<trkpt lat="50.761648" lon="5.610508"><time>2026-05-08T04:48:28Z</time></trkpt>
<trkpt lat="50.762536" lon="5.609947"><time>2026-05-08T04:58:28Z</time></trkpt>
</trkseg>
</trk>
<trk>
<name>lbgbg31</name>
<cmt>v</cmt>
<desc>Bassenge Sentier n°31 </desc>
<link href="https://chemins.be/bassenge/sentier/31"/><trkseg>
<trkpt lat="50.763225" lon="5.599619"><time>2026-05-08T04:48:28Z</time></trkpt>
<trkpt lat="50.763080" lon="5.597445"><time>2026-05-08T04:58:28Z</time></trkpt>
</trkseg></trk>
<trk>
<name>lbgbg31</name>
<cmt>q</cmt>
<desc>Bassenge Sentier n°31 </desc>
<link href="https://chemins.be/bassenge/sentier/31"/><trkseg>
<trkpt lat="50.763080" lon="5.597445"><time>2026-05-08T04:58:28Z</time></trkpt>
<trkpt lat="50.762795" lon="5.595664"><time>2026-05-08T05:08:28Z</time></trkpt>
<trkpt lat="50.762718" lon="5.594441"><time>2026-05-08T05:18:28Z</time></trkpt>
</trkseg>
</trk>
<trk>
<name>lbgbg38</name>
<cmt>q</cmt>
<desc>Bassenge Sentier n°38 </desc>
<link href="https://chemins.be/bassenge/sentier/38"/><trkseg>
<trkpt lat="50.765142" lon="5.598288"><time>2026-05-08T04:48:28Z</time></trkpt>
<trkpt lat="50.765239" lon="5.598778"><time>2026-05-08T04:58:28Z</time></trkpt>
<trkpt lat="50.765040" lon="5.599958"><time>2026-05-08T05:08:28Z</time></trkpt>
<trkpt lat="50.764927" lon="5.600394"><time>2026-05-08T05:18:28Z</time></trkpt>
<trkpt lat="50.764366" lon="5.604528"><time>2026-05-08T05:28:28Z</time></trkpt>
</trkseg></trk>
<trk>
<name>lbgbg38</name>
<cmt>v</cmt>
<desc>Bassenge Sentier n°38 </desc>
<link href="https://chemins.be/bassenge/sentier/38"/><trkseg>
<trkpt lat="50.764366" lon="5.604528"><time>2026-05-08T05:28:28Z</time></trkpt>
<trkpt lat="50.762516" lon="5.606349"><time>2026-05-08T05:38:28Z</time></trkpt>
<trkpt lat="50.762032" lon="5.607239"><time>2026-05-08T05:48:28Z</time></trkpt>
</trkseg></trk>
<trk>
<name>lbgbg38</name>
<cmt>q</cmt>
<desc>Bassenge Sentier n°38 </desc>
<link href="https://chemins.be/bassenge/sentier/38"/><trkseg>
<trkpt lat="50.762032" lon="5.607239"><time>2026-05-08T05:48:28Z</time></trkpt>
<trkpt lat="50.761251" lon="5.608409"><time>2026-05-08T05:58:28Z</time></trkpt>
<trkpt lat="50.760699" lon="5.609452"><time>2026-05-08T06:08:28Z</time></trkpt>
<trkpt lat="50.760353" lon="5.609586"><time>2026-05-08T06:18:28Z</time></trkpt>
</trkseg>
</trk>
<trk>
<name>lbgbg38bis</name>
<cmt>r</cmt>
<desc>Bassenge Sentier n°38bis </desc>
<link href="https://chemins.be/bassenge/sentier/38bis"/><trkseg>
<trkpt lat="50.760930" lon="5.609985"><time>2026-05-08T04:48:28Z</time></trkpt>
<trkpt lat="50.760928" lon="5.609958"><time>2026-05-08T04:58:28Z</time></trkpt>
<trkpt lat="50.760581" lon="5.609732"><time>2026-05-08T05:08:28Z</time></trkpt>
</trkseg></trk>
<trk>
<name>lbgbg38bis</name>
<cmt>q</cmt>
<desc>Bassenge Sentier n°38bis </desc>
<link href="https://chemins.be/bassenge/sentier/38bis"/><trkseg>
<trkpt lat="50.760581" lon="5.609732"><time>2026-05-08T05:08:28Z</time></trkpt>
<trkpt lat="50.760509" lon="5.609532"><time>2026-05-08T05:18:28Z</time></trkpt>
</trkseg>
</trk>
<trk>
<name>lbgbg42</name>
<cmt>v</cmt>
<desc>Bassenge Sentier n°42 </desc>
<link href="https://chemins.be/bassenge/sentier/42"/><trkseg>
<trkpt lat="50.772225" lon="5.611214"><time>2026-05-08T04:48:28Z</time></trkpt>
<trkpt lat="50.772534" lon="5.611746"><time>2026-05-08T04:58:28Z</time></trkpt>
<trkpt lat="50.773075" lon="5.613349"><time>2026-05-08T05:08:28Z</time></trkpt>
</trkseg>
</trk>
<trk>
<name>lbgbg5</name>
<cmt>v</cmt>
<desc>Bassenge Chemin n°5 </desc>
<link href="https://chemins.be/bassenge/chemin/5"/><trkseg>
<trkpt lat="50.764172" lon="5.609721"><time>2026-05-08T04:48:28Z</time></trkpt>
<trkpt lat="50.764726" lon="5.608734"><time>2026-05-08T04:58:28Z</time></trkpt>
<trkpt lat="50.767206" lon="5.605786"><time>2026-05-08T05:08:28Z</time></trkpt>
<trkpt lat="50.768368" lon="5.604628"><time>2026-05-08T05:18:28Z</time></trkpt>
<trkpt lat="50.771472" lon="5.602596"><time>2026-05-08T05:28:28Z</time></trkpt>
<trkpt lat="50.772860" lon="5.601073"><time>2026-05-08T05:38:28Z</time></trkpt>
<trkpt lat="50.773910" lon="5.600207"><time>2026-05-08T05:48:28Z</time></trkpt>
<trkpt lat="50.774764" lon="5.599700"><time>2026-05-08T05:58:28Z</time></trkpt>
<trkpt lat="50.775488" lon="5.599707"><time>2026-05-08T06:08:28Z</time></trkpt>
</trkseg>
</trk>
<trk>
<name>lbgbg6</name>
<cmt>v</cmt>
<desc>Bassenge Chemin n°6 </desc>
<link href="https://chemins.be/bassenge/chemin/6"/><trkseg>
<trkpt lat="50.770500" lon="5.616671"><time>2026-05-08T04:48:28Z</time></trkpt>
<trkpt lat="50.773070" lon="5.613352"><time>2026-05-08T04:58:28Z</time></trkpt>
<trkpt lat="50.775123" lon="5.610148"><time>2026-05-08T05:08:28Z</time></trkpt>
<trkpt lat="50.777164" lon="5.607060"><time>2026-05-08T05:18:28Z</time></trkpt>
</trkseg>
</trk>
<trk>
<name>lbgbgi1</name>
<cmt>q</cmt>
<desc>Bassenge Chemin n°i1 </desc>
<link href="https://chemins.be/bassenge/chemin/i1"/><trkseg>
<trkpt lat="50.753734" lon="5.610411"><time>2026-05-08T04:48:28Z</time></trkpt>
<trkpt lat="50.754114" lon="5.610200"><time>2026-05-08T04:58:28Z</time></trkpt>
<trkpt lat="50.754225" lon="5.610233"><time>2026-05-08T05:08:28Z</time></trkpt>
</trkseg>
</trk>
<trk>
<name>lbgbgi2</name>
<cmt>v</cmt>
<desc>Bassenge Chemin n°i2 </desc>
<link href="https://chemins.be/bassenge/chemin/i2"/><trkseg>
<trkpt lat="50.754963" lon="5.609809"><time>2026-05-08T04:48:28Z</time></trkpt>
<trkpt lat="50.754492" lon="5.608959"><time>2026-05-08T04:58:28Z</time></trkpt>
<trkpt lat="50.754322" lon="5.608649"><time>2026-05-08T05:08:28Z</time></trkpt>
<trkpt lat="50.754186" lon="5.608560"><time>2026-05-08T05:18:28Z</time></trkpt>
<trkpt lat="50.753317" lon="5.606671"><time>2026-05-08T05:28:28Z</time></trkpt>
</trkseg>
</trk>
<trk>
<name>lbgbgLv820B</name>
<cmt>v</cmt>
<desc>Bassenge Chemin n°Lv820B </desc>
<link href="https://chemins.be/bassenge/chemin/Lv820B"/><trkseg>
<trkpt lat="50.749089" lon="5.616569"><time>2026-05-08T04:48:28Z</time></trkpt>
<trkpt lat="50.749735" lon="5.615807"><time>2026-05-08T04:58:28Z</time></trkpt>
<trkpt lat="50.750790" lon="5.613865"><time>2026-05-08T05:08:28Z</time></trkpt>
<trkpt lat="50.751335" lon="5.613341"><time>2026-05-08T05:18:28Z</time></trkpt>
<trkpt lat="50.752167" lon="5.612824"><time>2026-05-08T05:28:28Z</time></trkpt>
<trkpt lat="50.752814" lon="5.612912"><time>2026-05-08T05:38:28Z</time></trkpt>
<trkpt lat="50.754091" lon="5.613123"><time>2026-05-08T05:48:28Z</time></trkpt>
</trkseg>
</trk>
</gpx>